createdAt,value
2019-05-01T00:02:41.055Z,101325.41
2019-05-01T00:05:22.364Z,101324.55
2019-05-01T00:07:52.486Z,101319.34
2019-05-01T00:10:22.841Z,101311.45
2019-05-01T00:12:52.937Z,101318.48
2019-05-01T00:15:25.189Z,101308.41
2019-05-01T00:17:55.244Z,101306.25
2019-05-01T00:20:25.350Z,101305.76
2019-05-01T00:22:55.423Z,101303.53
2019-05-01T00:25:25.482Z,101307.50
2019-05-01T00:27:55.553Z,101299.62
2019-05-01T00:30:30.207Z,101298.30
2019-05-01T00:32:58.625Z,101296.12
2019-05-01T00:35:28.790Z,101291.30
2019-05-01T00:37:58.902Z,101294.36
2019-05-01T00:40:29.015Z,101286.06
2019-05-01T00:42:59.244Z,101289.62
2019-05-01T00:45:29.348Z,101283.50
2019-05-01T00:47:59.476Z,101284.86
2019-05-01T00:50:29.556Z,101282.68
2019-05-01T00:52:59.621Z,101277.85
2019-05-01T00:55:57.829Z,101273.92
2019-05-01T00:58:42.781Z,101275.69
2019-05-01T01:01:37.682Z,101272.17
2019-05-01T01:04:08.431Z,101269.59
2019-05-01T01:06:38.676Z,101264.29
2019-05-01T01:09:09.423Z,101258.55
2019-05-01T01:11:39.539Z,101267.34
2019-05-01T01:14:09.587Z,101265.13
2019-05-01T01:16:39.661Z,101265.13
2019-05-01T01:19:09.720Z,101264.19
2019-05-01T01:21:39.823Z,101262.41
2019-05-01T01:24:09.975Z,101256.35
2019-05-01T01:26:40.077Z,101252.77
2019-05-01T01:29:10.252Z,101249.77
2019-05-01T01:31:40.381Z,101257.25
2019-05-01T01:34:10.467Z,101252.86
2019-05-01T01:36:40.545Z,101256.37
2019-05-01T01:39:10.650Z,101252.91
2019-05-01T01:41:41.244Z,101248.55
2019-05-01T01:44:27.494Z,101245.41
2019-05-01T01:46:57.915Z,101238.88
2019-05-01T01:49:28.014Z,101236.20
2019-05-01T01:51:58.129Z,101233.55
2019-05-01T01:54:31.333Z,101237.50
2019-05-01T01:57:01.517Z,101230.06
2019-05-01T01:59:31.908Z,101228.38
2019-05-01T02:02:21.443Z,101218.72
2019-05-01T02:05:13.915Z,101214.34
2019-05-01T02:07:44.344Z,101214.81
2019-05-01T02:10:16.267Z,101217.45
2019-05-01T02:12:46.491Z,101206.98
2019-05-01T02:15:16.595Z,101207.36
2019-05-01T02:17:46.781Z,101199.83
2019-05-01T02:20:17.097Z,101204.27
2019-05-01T02:22:47.213Z,101199.45
2019-05-01T02:25:17.386Z,101201.26
2019-05-01T02:28:09.616Z,101202.51
2019-05-01T02:30:41.826Z,101191.62
2019-05-01T02:33:14.765Z,101195.09
2019-05-01T02:35:45.397Z,101195.58
2019-05-01T02:38:17.244Z,101193.84
2019-05-01T02:40:54.326Z,101186.39
2019-05-01T02:43:27.268Z,101182.89
2019-05-01T02:46:00.700Z,101187.70
2019-05-01T02:48:34.949Z,101183.78
2019-05-01T02:51:06.532Z,101178.95
2019-05-01T02:53:39.786Z,101181.98
2019-05-01T02:56:29.671Z,101184.21
2019-05-01T02:59:00.843Z,101187.68
2019-05-01T03:01:45.659Z,101186.34
2019-05-01T03:04:04.118Z,101178.88
2019-05-01T03:06:34.783Z,101181.97
2019-05-01T03:09:08.484Z,101181.94
2019-05-01T03:11:41.245Z,101184.09
2019-05-01T03:14:15.790Z,101167.82
2019-05-01T03:16:48.669Z,101170.51
2019-05-01T03:19:43.879Z,101166.16
2019-05-01T03:22:39.255Z,101173.16
2019-05-01T03:25:09.468Z,101170.53
2019-05-01T03:27:41.528Z,101157.78
2019-05-01T03:30:11.713Z,101166.56
2019-05-01T03:32:42.381Z,101160.89
2019-05-01T03:35:12.487Z,101159.98
2019-05-01T03:37:42.801Z,101156.41
2019-05-01T03:40:14.392Z,101151.16
2019-05-01T03:42:44.777Z,101159.91
2019-05-01T03:45:14.923Z,101165.57
2019-05-01T03:47:45.076Z,101152.88
2019-05-01T03:50:15.156Z,101152.88
2019-05-01T03:52:45.599Z,101151.98
2019-05-01T03:55:16.022Z,101153.84
2019-05-01T03:57:46.576Z,101152.88
2019-05-01T04:00:25.308Z,101152.42
2019-05-01T04:03:20.231Z,101150.24
2019-05-01T04:05:50.864Z,101146.27
2019-05-01T04:08:21.441Z,101144.98
2019-05-01T04:10:51.592Z,101148.06
2019-05-01T04:13:21.668Z,101145.84
2019-05-01T04:15:53.556Z,101145.89
2019-05-01T04:18:24.562Z,101150.24
2019-05-01T04:20:56.186Z,101146.34
2019-05-01T04:23:26.625Z,101148.06
2019-05-01T04:25:56.918Z,101151.98
2019-05-01T04:28:39.782Z,101145.41
2019-05-01T04:31:27.137Z,101144.90
2019-05-01T04:33:59.515Z,101144.52
2019-05-01T04:36:34.665Z,101144.09
2019-05-01T04:39:06.758Z,101140.58
2019-05-01T04:41:37.146Z,101146.64
2019-05-01T04:44:07.304Z,101145.76
2019-05-01T04:46:37.808Z,101146.64
2019-05-01T04:49:07.886Z,101142.24
2019-05-01T04:51:38.289Z,101143.13
2019-05-01T04:54:08.350Z,101151.02
2019-05-01T04:56:38.738Z,101153.56
2019-05-01T04:59:09.020Z,101147.88
2019-05-01T05:01:57.633Z,101154.56
2019-05-01T05:04:28.034Z,101152.69
2019-05-01T05:06:58.091Z,101154.45
2019-05-01T05:09:47.719Z,101153.11
2019-05-01T05:12:40.668Z,101153.55
2019-05-01T05:15:28.858Z,101151.77
2019-05-01T05:17:59.262Z,101148.28
2019-05-01T05:20:29.346Z,101157.86
2019-05-01T05:22:59.915Z,101152.25
2019-05-01T05:25:30.688Z,101145.67
2019-05-01T05:28:01.211Z,101154.45
2019-05-01T05:30:34.787Z,101150.51
2019-05-01T05:33:18.189Z,101156.15
2019-05-01T05:35:41.950Z,101146.98
2019-05-01T05:38:26.476Z,101145.56
2019-05-01T05:41:00.352Z,101148.17
2019-05-01T05:43:30.088Z,101150.83
2019-05-01T05:46:00.769Z,101146.82
2019-05-01T05:48:31.320Z,101148.14
2019-05-01T05:51:11.082Z,101146.79
2019-05-01T05:53:44.660Z,101143.70
2019-05-01T05:56:21.904Z,101138.86
2019-05-01T05:58:57.935Z,101143.55
2019-05-01T06:01:48.496Z,101139.50
2019-05-01T06:04:39.478Z,101142.56
2019-05-01T06:07:23.243Z,101140.42
2019-05-01T06:10:18.579Z,101133.28
2019-05-01T06:13:08.302Z,101132.92
2019-05-01T06:15:54.365Z,101140.39
2019-05-01T06:18:30.143Z,101139.44
2019-05-01T06:21:16.023Z,101134.53
2019-05-01T06:24:06.295Z,101138.39
2019-05-01T06:26:37.585Z,101138.68
2019-05-01T06:29:05.783Z,101140.92
2019-05-01T06:31:37.375Z,101128.28
2019-05-01T06:34:07.435Z,101123.47
2019-05-01T06:36:39.028Z,101120.88
2019-05-01T06:39:11.774Z,101119.56
2019-05-01T06:41:49.450Z,101117.34
2019-05-01T06:44:44.979Z,101124.00
2019-05-01T06:47:43.167Z,101117.91
2019-05-01T06:50:28.405Z,101117.81
2019-05-01T06:52:59.785Z,101115.28
2019-05-01T06:55:31.464Z,101124.47
2019-05-01T06:58:01.665Z,101119.75
2019-05-01T07:00:32.364Z,101130.98
2019-05-01T07:03:05.975Z,101127.42
2019-05-01T07:05:35.195Z,101121.27
2019-05-01T07:08:05.292Z,101122.45
2019-05-01T07:10:43.594Z,101118.53
2019-05-01T07:13:07.875Z,101116.46
2019-05-01T07:15:37.979Z,101119.48
2019-05-01T07:18:08.054Z,101126.97
2019-05-01T07:20:56.298Z,101113.96
2019-05-01T07:23:27.112Z,101117.45
2019-05-01T07:25:57.437Z,101118.63
2019-05-01T07:28:34.122Z,101110.70
2019-05-01T07:31:07.339Z,101112.34
2019-05-01T07:33:37.694Z,101112.73
2019-05-01T07:36:14.851Z,101108.88
2019-05-01T07:38:41.731Z,101111.66
2019-05-01T07:41:12.525Z,101115.89
2019-05-01T07:44:11.150Z,101100.85
2019-05-01T07:47:06.353Z,101106.86
2019-05-01T07:49:56.100Z,101113.75
2019-05-01T07:52:26.897Z,101103.95
2019-05-01T07:54:57.760Z,101105.81
2019-05-01T07:57:28.555Z,101114.97
2019-05-01T08:00:08.640Z,101118.00
2019-05-01T08:02:39.225Z,101120.73
2019-05-01T08:05:13.500Z,101122.41
2019-05-01T08:07:44.502Z,101130.67
2019-05-01T08:10:14.876Z,101117.60
2019-05-01T08:12:45.281Z,101119.06
2019-05-01T08:15:17.793Z,101119.95
2019-05-01T08:18:05.595Z,101121.94
2019-05-01T08:20:45.745Z,101123.66
2019-05-01T08:23:16.167Z,101123.23
2019-05-01T08:25:46.218Z,101119.17
2019-05-01T08:28:27.699Z,101125.30
2019-05-01T08:31:13.320Z,101125.69
2019-05-01T08:34:00.340Z,101126.47
2019-05-01T08:36:30.437Z,101128.92
2019-05-01T08:39:00.556Z,101125.30
2019-05-01T08:41:32.012Z,101130.38
2019-05-01T08:44:02.753Z,101124.95
2019-05-01T08:46:52.183Z,101123.14
2019-05-01T08:49:35.194Z,101127.75
2019-05-01T08:52:12.583Z,101130.27
2019-05-01T08:54:37.279Z,101121.87
2019-05-01T08:57:08.022Z,101132.48
2019-05-01T08:59:38.412Z,101131.45
2019-05-01T09:02:09.847Z,101125.11
2019-05-01T09:04:40.086Z,101134.23
2019-05-01T09:07:10.215Z,101130.67
2019-05-01T09:09:45.466Z,101125.02
2019-05-01T09:12:13.576Z,101114.40
2019-05-01T09:14:43.782Z,101121.77
2019-05-01T09:17:13.877Z,101114.83
2019-05-01T09:19:43.950Z,101117.17
2019-05-01T09:22:14.084Z,101117.89
2019-05-01T09:24:45.152Z,101119.45
2019-05-01T09:27:40.633Z,101113.87
2019-05-01T09:30:21.810Z,101115.97
2019-05-01T09:32:54.096Z,101115.39
2019-05-01T09:35:23.173Z,101114.76
2019-05-01T09:37:53.584Z,101120.62
2019-05-01T09:40:24.301Z,101115.92
2019-05-01T09:42:58.971Z,101118.52
2019-05-01T09:45:26.797Z,101122.47
2019-05-01T09:47:57.007Z,101114.56
2019-05-01T09:50:30.518Z,101113.52
2019-05-01T09:53:24.026Z,101111.69
2019-05-01T09:56:19.343Z,101113.02
2019-05-01T09:58:49.631Z,101110.92
2019-05-01T10:01:24.076Z,101108.83
2019-05-01T10:03:54.537Z,101116.33
2019-05-01T10:06:23.496Z,101106.50
2019-05-01T10:08:53.636Z,101109.86
2019-05-01T10:11:23.735Z,101113.47
2019-05-01T10:13:59.701Z,101105.23
2019-05-01T10:16:31.974Z,101101.52
2019-05-01T10:19:03.916Z,101098.75
2019-05-01T10:21:34.002Z,101094.27
2019-05-01T10:24:04.732Z,101095.89
2019-05-01T10:26:36.643Z,101104.14
2019-05-01T10:29:25.863Z,101095.80
2019-05-01T10:32:01.227Z,101099.17
2019-05-01T10:34:42.919Z,101094.87
2019-05-01T10:37:12.272Z,101094.48
2019-05-01T10:39:42.450Z,101093.94
2019-05-01T10:42:12.800Z,101103.65
2019-05-01T10:44:44.456Z,101093.61
2019-05-01T10:47:14.507Z,101093.44
2019-05-01T10:49:47.677Z,101085.73
2019-05-01T10:52:17.760Z,101088.16
2019-05-01T10:54:47.901Z,101088.13
2019-05-01T10:57:18.023Z,101087.02
2019-05-01T10:59:48.161Z,101078.94
2019-05-01T11:02:19.093Z,101078.25
2019-05-01T11:04:50.922Z,101077.69
2019-05-01T11:07:21.052Z,101077.37
2019-05-01T11:09:51.175Z,101072.30
2019-05-01T11:12:21.328Z,101080.19
2019-05-01T11:14:51.491Z,101066.70
2019-05-01T11:17:21.659Z,101072.30
2019-05-01T11:19:51.940Z,101059.86
2019-05-01T11:22:22.089Z,101063.31
2019-05-01T11:24:52.166Z,101060.72
2019-05-01T11:27:22.334Z,101054.41
2019-05-01T11:29:52.436Z,101058.97
2019-05-01T11:32:32.136Z,101055.91
2019-05-01T11:35:21.202Z,101053.52
2019-05-01T11:38:01.307Z,101056.43
2019-05-01T11:40:35.145Z,101050.17
2019-05-01T11:43:05.320Z,101059.51
2019-05-01T11:45:35.461Z,101049.23
2019-05-01T11:48:05.676Z,101050.08
2019-05-01T11:50:35.791Z,101052.00
2019-05-01T11:53:06.194Z,101049.75
2019-05-01T11:55:36.332Z,101053.19
2019-05-01T11:58:06.415Z,101046.63
2019-05-01T12:00:36.531Z,101053.71
2019-05-01T12:03:06.621Z,101047.34
2019-05-01T12:05:36.723Z,101048.28
2019-05-01T12:08:06.828Z,101047.10
2019-05-01T12:10:36.929Z,101047.59
2019-05-01T12:13:07.225Z,101045.47
2019-05-01T12:15:37.362Z,101048.19
2019-05-01T12:18:07.514Z,101046.86
2019-05-01T12:20:37.621Z,101050.69
2019-05-01T12:23:07.725Z,101049.04
2019-05-01T12:25:37.958Z,101040.66
2019-05-01T12:28:08.102Z,101042.48
2019-05-01T12:30:38.242Z,101045.77
2019-05-01T12:33:08.373Z,101038.25
2019-05-01T12:35:38.486Z,101032.02
2019-05-01T12:38:08.577Z,101031.09
2019-05-01T12:40:38.750Z,101037.84
2019-05-01T12:43:08.868Z,101037.32
2019-05-01T12:45:38.959Z,101029.34
2019-05-01T12:48:09.097Z,101028.88
2019-05-01T12:50:39.216Z,101028.34
2019-05-01T12:53:23.554Z,101021.31
2019-05-01T12:56:15.788Z,101024.23
2019-05-01T12:58:47.094Z,101032.94
2019-05-01T13:01:17.238Z,101018.92
2019-05-01T13:03:47.374Z,101020.27
2019-05-01T13:06:17.928Z,101020.84
2019-05-01T13:08:48.091Z,101014.88
2019-05-01T13:11:18.265Z,101020.20
2019-05-01T13:13:48.468Z,101016.55
2019-05-01T13:16:18.584Z,101015.52
2019-05-01T13:18:54.966Z,101007.48
2019-05-01T13:21:25.189Z,101013.09
2019-05-01T13:23:55.290Z,101005.25
2019-05-01T13:26:34.680Z,100999.72
2019-05-01T13:29:23.437Z,101002.43
2019-05-01T13:32:01.086Z,100996.61
2019-05-01T13:34:31.236Z,100993.59
2019-05-01T13:37:03.115Z,100988.80
2019-05-01T13:39:33.556Z,100996.88
2019-05-01T13:42:03.651Z,100991.25
2019-05-01T13:44:34.083Z,100983.27
2019-05-01T13:47:04.549Z,100989.63
2019-05-01T13:49:36.154Z,100995.51
2019-05-01T13:52:06.440Z,100987.61
2019-05-01T13:54:36.894Z,100976.63
2019-05-01T13:57:07.043Z,100974.35
2019-05-01T13:59:37.232Z,100974.66
2019-05-01T14:02:07.496Z,100966.02
2019-05-01T14:04:37.785Z,100958.09
2019-05-01T14:07:16.284Z,100967.17
2019-05-01T14:09:40.435Z,100966.98
2019-05-01T14:12:10.668Z,100959.91
2019-05-01T14:14:40.838Z,100959.32
2019-05-01T14:17:11.221Z,100954.52
2019-05-01T14:19:44.190Z,100963.84
2019-05-01T14:22:42.631Z,100953.22
2019-05-01T14:25:13.157Z,100954.84
2019-05-01T14:27:43.762Z,100955.42
2019-05-01T14:30:14.166Z,100960.30
2019-05-01T14:32:44.572Z,100950.62
2019-05-01T14:35:16.492Z,100952.97
2019-05-01T14:37:46.618Z,100952.97
2019-05-01T14:40:16.834Z,100955.80
2019-05-01T14:42:47.116Z,100951.37
2019-05-01T14:45:17.558Z,100941.81
2019-05-01T14:47:47.870Z,100950.95
2019-05-01T14:50:18.121Z,100943.30
2019-05-01T14:52:51.293Z,100941.16
2019-05-01T14:55:21.381Z,100941.16
2019-05-01T14:57:51.638Z,100935.02
2019-05-01T15:00:22.009Z,100945.16
2019-05-01T15:02:52.211Z,100937.81
2019-05-01T15:05:22.340Z,100936.02
2019-05-01T15:07:52.477Z,100931.53
2019-05-01T15:10:22.589Z,100937.17
2019-05-01T15:12:54.560Z,100935.73
2019-05-01T15:15:47.576Z,100932.60
2019-05-01T15:18:33.457Z,100936.77
2019-05-01T15:21:03.707Z,100925.98
2019-05-01T15:23:33.938Z,100927.63
2019-05-01T15:26:04.056Z,100925.91
2019-05-01T15:28:34.160Z,100923.28
2019-05-01T15:31:04.278Z,100926.58
2019-05-01T15:33:34.452Z,100927.30
2019-05-01T15:36:04.671Z,100925.14
2019-05-01T15:38:34.820Z,100921.18
2019-05-01T15:41:16.518Z,100919.33
2019-05-01T15:44:08.348Z,100916.62
2019-05-01T15:46:40.086Z,100912.30
2019-05-01T15:49:10.346Z,100915.38
2019-05-01T15:51:40.616Z,100919.61
2019-05-01T15:54:10.769Z,100917.55
2019-05-01T15:56:41.029Z,100914.83
2019-05-01T15:59:11.300Z,100909.45
2019-05-01T16:01:41.652Z,100916.37
2019-05-01T16:04:11.873Z,100910.81
2019-05-01T16:06:42.021Z,100906.53
2019-05-01T16:09:12.514Z,100904.51
2019-05-01T16:12:04.503Z,100906.52
2019-05-01T16:14:34.634Z,100903.92
2019-05-01T16:17:04.839Z,100904.78
2019-05-01T16:19:35.081Z,100906.19
2019-05-01T16:22:05.997Z,100897.39
2019-05-01T16:24:36.155Z,100899.59
2019-05-01T16:27:06.976Z,100890.03
2019-05-01T16:29:37.127Z,100896.20
2019-05-01T16:32:07.436Z,100891.40
2019-05-01T16:34:37.553Z,100894.50
2019-05-01T16:37:07.697Z,100891.88
2019-05-01T16:40:02.441Z,100887.16
2019-05-01T16:42:35.046Z,100880.78
2019-05-01T16:45:06.788Z,100884.22
2019-05-01T16:47:37.195Z,100886.01
2019-05-01T16:50:08.895Z,100876.84
2019-05-01T16:52:39.610Z,100879.17
2019-05-01T16:55:10.429Z,100874.37
2019-05-01T16:57:40.612Z,100883.58
2019-05-01T17:00:13.127Z,100877.63
2019-05-01T17:03:01.241Z,100882.09
2019-05-01T17:05:59.546Z,100877.59
2019-05-01T17:08:42.121Z,100873.30
2019-05-01T17:11:12.804Z,100871.37
2019-05-01T17:13:42.934Z,100867.47
2019-05-01T17:16:13.327Z,100870.05
2019-05-01T17:18:43.591Z,100863.05
2019-05-01T17:21:13.760Z,100857.45
2019-05-01T17:23:43.956Z,100853.84
2019-05-01T17:26:14.190Z,100859.11
2019-05-01T17:28:46.466Z,100861.47
2019-05-01T17:31:16.676Z,100850.63
2019-05-01T17:33:50.854Z,100854.97
2019-05-01T17:36:18.936Z,100849.28
2019-05-01T17:38:50.094Z,100844.17
2019-05-01T17:41:22.715Z,100841.15
2019-05-01T17:43:52.212Z,100844.25
2019-05-01T17:46:22.846Z,100838.98
2019-05-01T17:48:53.267Z,100842.50
2019-05-01T17:51:24.287Z,100835.50
2019-05-01T17:53:55.108Z,100832.41
2019-05-01T17:56:28.331Z,100834.61
2019-05-01T17:58:57.619Z,100830.31
2019-05-01T18:01:47.453Z,100825.98
2019-05-01T18:04:26.512Z,100825.09
2019-05-01T18:06:56.942Z,100825.02
2019-05-01T18:09:27.151Z,100822.45
2019-05-01T18:11:57.330Z,100825.09
2019-05-01T18:14:27.879Z,100823.42
2019-05-01T18:16:58.173Z,100826.02
2019-05-01T18:19:28.552Z,100829.45
2019-05-01T18:22:12.188Z,100821.22
2019-05-01T18:25:10.567Z,100820.75
2019-05-01T18:27:58.944Z,100822.64
2019-05-01T18:30:40.678Z,100824.84
2019-05-01T18:33:10.996Z,100820.94
2019-05-01T18:35:44.917Z,100827.97
2019-05-01T18:38:35.334Z,100827.52
2019-05-01T18:41:21.081Z,100820.51
2019-05-01T18:43:51.449Z,100822.32
2019-05-01T18:46:22.071Z,100817.48
2019-05-01T18:48:52.352Z,100806.97
2019-05-01T18:51:22.860Z,100807.83
2019-05-01T18:53:57.378Z,100805.34
2019-05-01T18:56:25.469Z,100804.52
2019-05-01T18:58:56.316Z,100800.25
2019-05-01T19:01:26.670Z,100803.63
2019-05-01T19:04:00.129Z,100801.86
2019-05-01T19:06:41.010Z,100808.03
2019-05-01T19:09:14.263Z,100801.03
2019-05-01T19:11:35.408Z,100800.58
2019-05-01T19:14:06.435Z,100797.56
2019-05-01T19:16:39.877Z,100791.88
2019-05-01T19:19:11.020Z,100795.32
2019-05-01T19:21:48.008Z,100797.06
2019-05-01T19:24:18.626Z,100798.45
2019-05-01T19:26:51.523Z,100797.13
2019-05-01T19:29:21.859Z,100791.41
2019-05-01T19:31:52.274Z,100792.33
2019-05-01T19:34:24.087Z,100784.88
2019-05-01T19:36:54.847Z,100787.04
2019-05-01T19:39:27.080Z,100774.36
2019-05-01T19:41:58.144Z,100781.42
2019-05-01T19:44:29.364Z,100771.27
2019-05-01T19:47:00.373Z,100757.84
2019-05-01T19:49:31.115Z,100758.69
2019-05-01T19:52:02.880Z,100768.70
2019-05-01T19:54:33.778Z,100770.91
2019-05-01T19:57:04.463Z,100757.27
2019-05-01T19:59:34.789Z,100757.34
2019-05-01T20:02:06.600Z,100750.80
2019-05-01T20:04:37.424Z,100745.98
2019-05-01T20:07:15.826Z,100746.44
2019-05-01T20:09:56.708Z,100732.41
2019-05-01T20:12:20.540Z,100742.96
2019-05-01T20:14:50.948Z,100744.23
2019-05-01T20:17:21.440Z,100741.18
2019-05-01T20:19:51.848Z,100743.45
2019-05-01T20:22:24.091Z,100741.72
2019-05-01T20:24:59.079Z,100742.60
2019-05-01T20:27:29.348Z,100736.56
2019-05-01T20:30:01.005Z,100732.66
2019-05-01T20:32:31.376Z,100728.68
2019-05-01T20:35:02.065Z,100726.97
2019-05-01T20:37:32.387Z,100726.52
2019-05-01T20:40:11.335Z,100730.88
2019-05-01T20:42:36.523Z,100727.44
2019-05-01T20:45:13.030Z,100733.08
2019-05-01T20:47:45.121Z,100724.34
2019-05-01T20:50:15.375Z,100715.25
2019-05-01T20:52:45.762Z,100720.12
2019-05-01T20:55:15.998Z,100702.62
2019-05-01T20:57:47.243Z,100715.69
2019-05-01T21:00:18.614Z,100709.61
2019-05-01T21:02:48.829Z,100714.83
2019-05-01T21:05:27.325Z,100706.16
2019-05-01T21:08:19.389Z,100704.36
2019-05-01T21:10:54.024Z,100703.50
2019-05-01T21:13:25.137Z,100700.88
2019-05-01T21:15:56.309Z,100699.10
2019-05-01T21:18:27.795Z,100695.63
2019-05-01T21:20:57.911Z,100700.48
2019-05-01T21:23:28.083Z,100689.48
2019-05-01T21:25:58.403Z,100684.30
2019-05-01T21:28:28.542Z,100689.58
2019-05-01T21:30:58.638Z,100678.65
2019-05-01T21:33:28.887Z,100682.55
2019-05-01T21:35:59.537Z,100679.04
2019-05-01T21:38:30.802Z,100681.24
2019-05-01T21:41:02.731Z,100667.25
2019-05-01T21:43:36.914Z,100664.23
2019-05-01T21:46:04.660Z,100655.93
2019-05-01T21:48:34.753Z,100660.27
2019-05-01T21:51:07.285Z,100663.84
2019-05-01T21:53:37.401Z,100654.80
2019-05-01T21:56:08.481Z,100658.27
2019-05-01T21:58:38.551Z,100656.04
2019-05-01T22:01:08.797Z,100658.59
2019-05-01T22:03:38.892Z,100650.42
2019-05-01T22:06:11.229Z,100656.99
2019-05-01T22:08:41.171Z,100645.17
2019-05-01T22:11:11.242Z,100643.79
2019-05-01T22:13:41.521Z,100638.61
2019-05-01T22:16:22.022Z,100638.54
2019-05-01T22:19:07.715Z,100635.48
2019-05-01T22:21:54.929Z,100628.11
2019-05-01T22:24:42.847Z,100633.78
2019-05-01T22:27:20.492Z,100630.63
2019-05-01T22:30:00.206Z,100626.72
2019-05-01T22:32:34.537Z,100619.77
2019-05-01T22:35:14.513Z,100617.13
2019-05-01T22:37:44.552Z,100622.39
2019-05-01T22:40:17.273Z,100618.02
2019-05-01T22:42:47.349Z,100613.16
2019-05-01T22:45:21.669Z,100600.95
2019-05-01T22:47:52.078Z,100610.61
2019-05-01T22:50:29.865Z,100602.27
2019-05-01T22:52:59.927Z,100600.48
2019-05-01T22:55:30.013Z,100599.56
2019-05-01T22:58:00.063Z,100592.65
2019-05-01T23:00:50.101Z,100592.58
2019-05-01T23:03:24.423Z,100596.13
2019-05-01T23:05:54.508Z,100586.93
2019-05-01T23:08:25.278Z,100587.43
2019-05-01T23:10:55.437Z,100575.19
2019-05-01T23:13:25.714Z,100570.36
2019-05-01T23:15:56.587Z,100580.83
2019-05-01T23:18:27.756Z,100561.13
2019-05-01T23:20:57.844Z,100555.07
2019-05-01T23:23:28.387Z,100570.78
2019-05-01T23:25:58.483Z,100555.61
2019-05-01T23:28:28.596Z,100551.67
2019-05-01T23:30:58.792Z,100544.25
2019-05-01T23:33:28.945Z,100541.16
2019-05-01T23:35:58.985Z,100538.54
2019-05-01T23:38:29.133Z,100540.73
2019-05-01T23:40:59.218Z,100532.01
2019-05-01T23:43:29.279Z,100532.44
2019-05-01T23:45:59.355Z,100524.13
2019-05-01T23:48:29.446Z,100525.02
2019-05-01T23:50:59.538Z,100520.27
2019-05-01T23:53:29.603Z,100518.45
2019-05-01T23:56:01.685Z,100510.19
2019-05-01T23:58:31.533Z,100515.83
